Donna York — WDE8199 — position and weather

sailwx.info

Track history (hours):
 
Tides and Currents Weather Stations Pressure Air Temp Water Temp Dewpoint Dewpoint Depression Visibility Wind Speed Wind Dir Waves Ship Positions

Donna York

Owner: Crounse Corporation, Maysville, KY. More information available from US FCC via Universal Licensing System and Coast Guard Vessel Documentation Center.

Last reported at 2015-Jul-30 15:29 UTC. Time now 2015-Aug-02 00:15 UTC.
Position N 39°07' W 084°47'.

Length 34 m.

Type: Towing. MMSI: 367402680.

Date/timePositionNaut miles runAvg speedWind from/ knotsBaromVisibWave heightAir tempDewpointWater temp
2015-Jul-30 15:29N 39°07' W 084°47'4 4.0
2015-Jul-30 14:34N 39°07' W 084°43'5 5.3
2015-Jul-30 13:33N 39°04' W 084°37'5 5.2
2015-Jul-30 12:34N 39°06' W 084°30'4 3.5
2015-Jul-30 11:34N 39°05' W 084°26'5 4.9
2015-Jul-30 10:33N 39°02' W 084°21'6 5.6
2015-Jul-30 09:31N 38°57' W 084°17'5 5.6
2015-Jul-30 08:33N 38°52' W 084°14'0 0.3
2015-Jul-30 07:34N 38°53' W 084°14'0 0.1
2015-Jul-30 06:32N 38°53' W 084°14'0 0.1
2015-Jul-30 05:32N 38°53' W 084°14'1 1.3
2015-Jul-30 04:32N 38°54' W 084°14'3 3.1
2015-Jul-30 03:33N 38°56' W 084°17'3 3.2
2015-Jul-30 02:33N 38°59' W 084°18'3 3.1
2015-Jul-30 01:33N 39°02' W 084°20'3 3.3
2015-Jul-30 00:33N 39°03' W 084°24'3 3.0
2015-Jul-29 23:32N 39°05' W 084°26'3 2.6
2015-Jul-29 22:33N 39°07' W 084°29'3 2.7
2015-Jul-29 21:33N 39°06' W 084°32'3 3.1
2015-Jul-29 20:33N 39°04' W 084°36'3 3.0
2015-Jul-29 19:32N 39°06' W 084°39'3 3.2
2015-Jul-29 18:32N 39°08' W 084°43'3 2.6
2015-Jul-29 17:23N 39°08' W 084°46'  
Track history (hours):
 
Tides and Currents Weather Stations Pressure Air Temp Water Temp Dewpoint Dewpoint Depression Visibility Wind Speed Wind Dir Waves Ship Positions

Donna York

Owner: Crounse Corporation, Maysville, KY. More information available from US FCC via Universal Licensing System and Coast Guard Vessel Documentation Center.

Last reported at 2015-Jul-30 15:29 UTC. Time now 2015-Aug-02 00:15 UTC.
Position N 39°07' W 084°47'.

Length 34 m.

Type: Towing. MMSI: 367402680.

Date/timePositionNaut miles runAvg speedWind from/ knotsBaromVisibWave heightAir tempDewpointWater temp
2015-Jul-30 15:29N 39°07' W 084°47'4 4.0
2015-Jul-30 14:34N 39°07' W 084°43'5 5.3
2015-Jul-30 13:33N 39°04' W 084°37'5 5.2
2015-Jul-30 12:34N 39°06' W 084°30'4 3.5
2015-Jul-30 11:34N 39°05' W 084°26'5 4.9
2015-Jul-30 10:33N 39°02' W 084°21'6 5.6
2015-Jul-30 09:31N 38°57' W 084°17'5 5.6
2015-Jul-30 08:33N 38°52' W 084°14'0 0.3
2015-Jul-30 07:34N 38°53' W 084°14'0 0.1
2015-Jul-30 06:32N 38°53' W 084°14'0 0.1
2015-Jul-30 05:32N 38°53' W 084°14'1 1.3
2015-Jul-30 04:32N 38°54' W 084°14'3 3.1
2015-Jul-30 03:33N 38°56' W 084°17'3 3.2
2015-Jul-30 02:33N 38°59' W 084°18'3 3.1
2015-Jul-30 01:33N 39°02' W 084°20'3 3.3
2015-Jul-30 00:33N 39°03' W 084°24'3 3.0
2015-Jul-29 23:32N 39°05' W 084°26'3 2.6
2015-Jul-29 22:33N 39°07' W 084°29'3 2.7
2015-Jul-29 21:33N 39°06' W 084°32'3 3.1
2015-Jul-29 20:33N 39°04' W 084°36'3 3.0
2015-Jul-29 19:32N 39°06' W 084°39'3 3.2
2015-Jul-29 18:32N 39°08' W 084°43'3 2.6
2015-Jul-29 17:23N 39°08' W 084°46'  

Dump ship's entire track history